Time;durP1;ratioP1;P1;durP2;ratioP2;P2;SDS_P1;SDS_P2;PMS_P1;PMS_P2;Temp;Humidity;BMP_temperature;BMP_pressure;BME280_temperature;BME280_humidity;BME280_pressure;Samples;Min_cycle;Max_cycle;Signal;HPM_P1;HPM_P2
2022/07/19 06:08:24;;;;;;;10.68;3.60;;;;;;;;;;4955083;23;20382;-59
2022/07/19 06:10:50;;;;;;;8.68;3.50;;;;;;;;;;4858610;29;20070;-60
2022/07/19 06:13:16;;;;;;;9.00;3.67;;;;;;;;;;4859104;29;20489;-60
2022/07/19 06:15:42;;;;;;;11.35;3.40;;;;;;;;;;4858511;29;20421;-59
2022/07/19 06:18:08;;;;;;;8.32;3.67;;;;;;;;;;4860874;29;20022;-59
2022/07/19 06:20:34;;;;;;;8.43;3.45;;;;;;;;;;4862318;29;20036;-59
2022/07/19 06:23:00;;;;;;;7.18;3.25;;;;;;;;;;4862676;29;20033;-59
2022/07/19 06:25:26;;;;;;;7.20;3.08;;;;;;;;;;4862275;29;20029;-61
2022/07/19 06:27:53;;;;;;;7.65;3.00;;;;;;;;;;4862642;29;20030;-58
2022/07/19 06:30:19;;;;;;;7.28;3.35;;;;;;;;;;4862819;29;20041;-60
2022/07/19 06:32:45;;;;;;;4.97;2.80;;;;;;;;;;4862349;29;20029;-62
2022/07/19 06:35:11;;;;;;;9.63;3.03;;;;;;;;;;4862307;29;20037;-61
2022/07/19 06:37:37;;;;;;;6.03;2.80;;;;;;;;;;4862311;29;20132;-62
2022/07/19 06:40:03;;;;;;;9.63;2.95;;;;;;;;;;4862070;29;20485;-60
2022/07/19 06:42:29;;;;;;;10.27;3.15;;;;;;;;;;4862134;29;20409;-60
2022/07/19 06:44:56;;;;;;;9.60;3.83;;;;;;;;;;4862237;29;20093;-61
2022/07/19 06:47:22;;;;;;;11.05;3.35;;;;;;;;;;4845361;29;20033;-60
2022/07/19 06:49:48;;;;;;;8.85;3.53;;;;;;;;;;4862084;29;20038;-60
2022/07/19 06:52:14;;;;;;;10.48;3.40;;;;;;;;;;4861931;29;20034;-60
2022/07/19 06:54:40;;;;;;;8.68;3.60;;;;;;;;;;4861833;29;20045;-61
2022/07/19 06:57:08;;;;;;;8.27;3.75;;;;;;;;;;4861851;29;20061;-60
2022/07/19 06:59:34;;;;;;;12.00;3.85;;;;;;;;;;4861788;29;20055;-60
2022/07/19 07:02:01;;;;;;;10.30;4.03;;;;;;;;;;4861686;29;20041;-61
2022/07/19 07:04:27;;;;;;;9.20;3.88;;;;;;;;;;4861628;29;20081;-59
2022/07/19 07:06:53;;;;;;;9.25;4.15;;;;;;;;;;4861372;29;20041;-60
2022/07/19 07:09:19;;;;;;;8.18;3.72;;;;;;;;;;4861207;29;20032;-60
2022/07/19 07:11:45;;;;;;;13.55;4.07;;;;;;;;;;4861517;29;20245;-59
2022/07/19 07:14:11;;;;;;;9.73;4.45;;;;;;;;;;4861226;29;20443;-60
2022/07/19 07:16:38;;;;;;;9.40;4.38;;;;;;;;;;4860521;29;20382;-58
2022/07/19 07:19:04;;;;;;;7.97;4.15;;;;;;;;;;4860129;29;20053;-60
2022/07/19 07:21:33;;;;;;;10.40;3.97;;;;;;;;;;4859880;29;20041;-62
2022/07/19 07:23:59;;;;;;;10.45;4.10;;;;;;;;;;4859765;29;20033;-61
2022/07/19 07:26:25;;;;;;;10.07;4.20;;;;;;;;;;4860050;29;20112;-60
2022/07/19 07:28:51;;;;;;;15.20;3.97;;;;;;;;;;4859903;29;20056;-59
2022/07/19 07:31:17;;;;;;;6.85;3.88;;;;;;;;;;4859357;29;20470;-60
2022/07/19 07:33:43;;;;;;;11.55;3.90;;;;;;;;;;4859843;29;20429;-60
2022/07/19 07:36:09;;;;;;;10.25;4.10;;;;;;;;;;4867486;29;20573;-59
2022/07/19 07:38:35;;;;;;;13.10;4.20;;;;;;;;;;4869584;29;20089;-61
2022/07/19 07:41:01;;;;;;;13.13;4.28;;;;;;;;;;4870699;29;20053;-59
2022/07/19 07:43:27;;;;;;;10.38;4.28;;;;;;;;;;4866578;29;20044;-59
2022/07/19 07:45:53;;;;;;;13.18;3.97;;;;;;;;;;4872012;29;20091;-59
2022/07/19 07:48:19;;;;;;;10.93;3.80;;;;;;;;;;4869902;29;20032;-60
2022/07/19 07:50:45;;;;;;;9.88;3.88;;;;;;;;;;4868842;29;20031;-60
2022/07/19 07:53:11;;;;;;;11.23;3.70;;;;;;;;;;4871622;29;20402;-61
2022/07/19 07:55:39;;;;;;;11.73;3.80;;;;;;;;;;4879654;29;20068;-67
2022/07/19 07:58:09;;;;;;;8.45;3.70;;;;;;;;;;4862511;29;20033;-61
2022/07/19 08:00:36;;;;;;;14.82;4.00;;;;;;;;;;4865586;29;20038;-61
2022/07/19 08:03:02;;;;;;;13.75;4.00;;;;;;;;;;4872827;29;20034;-71
2022/07/19 08:05:28;;;;;;;12.15;4.18;;;;;;;;;;4865175;29;20021;-59
2022/07/19 08:07:54;;;;;;;11.10;4.20;;;;;;;;;;4867722;29;20410;-61
2022/07/19 08:10:22;;;;;;;12.23;4.10;;;;;;;;;;4879408;29;20025;-58
2022/07/19 08:12:48;;;;;;;11.65;4.45;;;;;;;;;;4875515;29;20032;-60
2022/07/19 08:15:14;;;;;;;10.13;4.57;;;;;;;;;;4877310;29;20044;-59
2022/07/19 08:17:40;;;;;;;11.27;4.03;;;;;;;;;;4873024;29;20534;-58
2022/07/19 08:20:07;;;;;;;10.20;4.53;;;;;;;;;;4870653;29;20033;-58
2022/07/19 08:22:33;;;;;;;7.00;3.80;;;;;;;;;;4867648;29;20029;-60
2022/07/19 08:24:59;;;;;;;7.80;3.20;;;;;;;;;;4865815;29;20033;-60
2022/07/19 08:27:25;;;;;;;6.90;2.58;;;;;;;;;;4865905;29;20025;-60
2022/07/19 08:29:51;;;;;;;5.88;2.00;;;;;;;;;;4867001;29;20115;-60
2022/07/19 08:32:17;;;;;;;5.82;2.30;;;;;;;;;;4876010;29;20197;-59
2022/07/19 08:34:43;;;;;;;6.20;2.90;;;;;;;;;;4878748;29;20036;-59
2022/07/19 08:37:09;;;;;;;10.68;2.90;;;;;;;;;;4878692;29;20053;-60
2022/07/19 08:39:35;;;;;;;8.45;2.75;;;;;;;;;;4878474;29;20036;-59
2022/07/19 08:42:02;;;;;;;8.40;2.03;;;;;;;;;;4877450;29;20025;-60
2022/07/19 08:44:29;;;;;;;7.53;2.20;;;;;;;;;;4878443;29;20025;-59
2022/07/19 08:46:55;;;;;;;6.40;2.40;;;;;;;;;;4878257;29;20048;-60
2022/07/19 08:49:21;;;;;;;5.40;2.50;;;;;;;;;;4878531;29;20481;-61
2022/07/19 08:51:48;;;;;;;6.20;2.20;;;;;;;;;;4878346;29;20044;-59
2022/07/19 08:54:14;;;;;;;6.93;2.03;;;;;;;;;;4878333;29;20049;-60
2022/07/19 08:59:25;;;;;;;7.88;2.08;;;;;;;;;;4878451;29;20098;-59
2022/07/19 09:01:51;;;;;;;4.53;1.90;;;;;;;;;;4877597;29;20037;-59
2022/07/19 09:04:21;;;;;;;6.53;1.98;;;;;;;;;;4878252;29;20079;-60
2022/07/19 09:06:48;;;;;;;5.07;2.25;;;;;;;;;;4877703;29;20025;-61
2022/07/19 09:09:16;;;;;;;3.20;1.48;;;;;;;;;;4878150;29;20033;-60
2022/07/19 09:11:49;;;;;;;6.60;1.50;;;;;;;;;;4878083;29;20470;-60
2022/07/19 09:14:16;;;;;;;4.30;1.63;;;;;;;;;;4878128;29;20048;-60
2022/07/19 09:16:55;;;;;;;7.82;1.40;;;;;;;;;;4877580;29;20052;-61
2022/07/19 09:19:21;;;;;;;8.30;1.80;;;;;;;;;;4877884;29;20029;-61
2022/07/19 09:21:59;;;;;;;5.25;2.30;;;;;;;;;;4877960;29;20556;-60
2022/07/19 09:24:26;;;;;;;3.55;1.70;;;;;;;;;;4877841;29;20062;-60
2022/07/19 09:26:57;;;;;;;3.38;1.30;;;;;;;;;;4877806;29;20029;-60
2022/07/19 09:29:23;;;;;;;6.35;1.48;;;;;;;;;;4877691;29;20029;-61
2022/07/19 09:32:03;;;;;;;7.30;1.50;;;;;;;;;;4877874;29;20077;-61
2022/07/19 09:34:30;;;;;;;5.00;1.45;;;;;;;;;;4877807;29;20021;-61
2022/07/19 09:37:14;;;;;;;2.70;1.38;;;;;;;;;;4877805;29;20378;-61
2022/07/19 09:39:46;;;;;;;5.28;1.67;;;;;;;;;;4877946;29;20039;-61
2022/07/19 09:42:17;;;;;;;3.88;1.50;;;;;;;;;;4877484;29;20033;-60
2022/07/19 09:44:44;;;;;;;3.35;1.80;;;;;;;;;;4877518;29;20032;-60
2022/07/19 09:47:10;;;;;;;5.40;1.88;;;;;;;;;;4877653;29;20037;-61
2022/07/19 09:49:36;;;;;;;4.93;2.10;;;;;;;;;;4865301;29;20038;-60
2022/07/19 09:52:02;;;;;;;3.83;1.70;;;;;;;;;;4857434;29;20041;-60
2022/07/19 09:54:29;;;;;;;6.10;1.98;;;;;;;;;;4857499;29;20394;-61
2022/07/19 09:56:56;;;;;;;7.43;1.95;;;;;;;;;;4857662;29;20038;-60
2022/07/19 09:59:23;;;;;;;4.05;1.95;;;;;;;;;;4857690;29;20033;-60
2022/07/19 10:01:49;;;;;;;3.83;1.58;;;;;;;;;;4857482;29;20080;-60
2022/07/19 10:04:18;;;;;;;2.83;1.33;;;;;;;;;;4857716;29;20026;-60
2022/07/19 10:06:45;;;;;;;4.47;1.70;;;;;;;;;;4857339;29;20076;-60
2022/07/19 10:09:12;;;;;;;4.00;1.75;;;;;;;;;;4840653;29;20041;-60
2022/07/19 10:11:39;;;;;;;4.45;1.38;;;;;;;;;;4857626;29;20025;-60
2022/07/19 10:14:05;;;;;;;7.07;1.50;;;;;;;;;;4857502;29;20024;-60
2022/07/19 10:16:44;;;;;;;2.47;1.48;;;;;;;;;;4857447;29;20089;-60
2022/07/19 10:19:13;;;;;;;2.70;1.48;;;;;;;;;;4863399;29;20540;-59
2022/07/19 10:21:40;;;;;;;4.50;1.50;;;;;;;;;;4877517;29;20482;-59
2022/07/19 10:24:06;;;;;;;4.28;1.52;;;;;;;;;;4867093;29;20101;-58
2022/07/19 10:26:35;;;;;;;6.60;1.70;;;;;;;;;;4857266;29;20029;-59
2022/07/19 10:29:27;;;;;;;4.85;1.60;;;;;;;;;;4857388;29;20029;-59
2022/07/19 10:32:20;;;;;;;5.10;2.22;;;;;;;;;;4853555;29;20536;-59
2022/07/19 10:34:46;;;;;;;4.68;1.60;;;;;;;;;;4853742;29;20053;-59
2022/07/19 10:37:12;;;;;;;3.78;1.55;;;;;;;;;;4857224;29;20042;-59
2022/07/19 10:39:39;;;;;;;5.30;1.60;;;;;;;;;;4857497;29;20022;-59
2022/07/19 10:42:08;;;;;;;3.47;1.50;;;;;;;;;;4857463;29;20041;-61
2022/07/19 10:44:36;;;;;;;4.18;1.48;;;;;;;;;;4856844;29;20037;-60
2022/07/19 10:47:02;;;;;;;3.72;1.45;;;;;;;;;;4858298;29;20382;-60
2022/07/19 10:49:44;;;;;;;3.75;1.50;;;;;;;;;;4865113;29;20049;-59
2022/07/19 10:52:28;;;;;;;4.60;1.60;;;;;;;;;;4868088;29;20025;-60
2022/07/19 10:55:12;;;;;;;3.28;1.60;;;;;;;;;;4850452;29;20350;-60
2022/07/19 10:57:39;;;;;;;6.47;1.60;;;;;;;;;;4865308;29;20545;-60
2022/07/19 11:00:24;;;;;;;4.85;1.80;;;;;;;;;;4877141;29;20037;-60
2022/07/19 11:02:51;;;;;;;7.07;1.88;;;;;;;;;;4876746;29;20032;-60
2022/07/19 11:05:27;;;;;;;3.65;1.50;;;;;;;;;;4872317;29;20036;-61
2022/07/19 11:07:54;;;;;;;4.75;1.95;;;;;;;;;;4865721;29;20560;-60
2022/07/19 11:10:23;;;;;;;6.65;1.90;;;;;;;;;;4842806;29;20415;-61
2022/07/19 11:12:49;;;;;;;4.82;2.53;;;;;;;;;;4843117;29;20030;-60
2022/07/19 11:15:16;;;;;;;7.15;1.80;;;;;;;;;;4843180;29;20049;-60
2022/07/19 11:17:55;;;;;;;5.10;1.73;;;;;;;;;;4842798;29;20463;-61
2022/07/19 11:20:25;;;;;;;5.68;1.52;;;;;;;;;;4843752;29;20038;-61
2022/07/19 11:22:52;;;;;;;7.25;1.80;;;;;;;;;;4842885;29;20154;-60
2022/07/19 11:25:24;;;;;;;5.25;1.60;;;;;;;;;;4842981;29;20042;-61
2022/07/19 11:27:50;;;;;;;3.67;1.63;;;;;;;;;;4842910;29;20486;-61
2022/07/19 11:30:16;;;;;;;3.88;2.22;;;;;;;;;;4842896;29;20033;-61
2022/07/19 11:32:43;;;;;;;4.30;1.70;;;;;;;;;;4842656;29;20037;-60
2022/07/19 11:35:10;;;;;;;4.85;1.73;;;;;;;;;;4842418;29;20057;-60
2022/07/19 11:37:38;;;;;;;9.45;1.80;;;;;;;;;;4842757;29;20042;-60
2022/07/19 11:40:05;;;;;;;5.50;1.67;;;;;;;;;;4842563;29;20048;-61
2022/07/19 11:42:31;;;;;;;6.63;1.73;;;;;;;;;;4842671;29;20030;-61
2022/07/19 11:44:57;;;;;;;5.93;2.25;;;;;;;;;;4842215;29;20050;-61
2022/07/19 11:47:23;;;;;;;5.40;2.05;;;;;;;;;;4834418;29;20071;-62
2022/07/19 11:49:50;;;;;;;8.05;2.20;;;;;;;;;;4842077;29;20451;-59
2022/07/19 11:52:16;;;;;;;6.07;1.77;;;;;;;;;;4842338;29;20038;-59
2022/07/19 11:54:42;;;;;;;4.15;1.92;;;;;;;;;;4842314;29;20060;-60
2022/07/19 11:57:24;;;;;;;6.95;1.73;;;;;;;;;;4842218;29;20032;-59
2022/07/19 11:59:50;;;;;;;;;;;;;;;;;;4842454;29;20086;-59
2022/07/19 12:02:16;;;;;;;5.15;1.67;;;;;;;;;;4842065;29;19917;-59
2022/07/19 12:04:42;;;;;;;3.70;1.80;;;;;;;;;;4842060;29;20038;-61
2022/07/19 12:07:08;;;;;;;4.82;1.70;;;;;;;;;;4842170;29;20061;-59
2022/07/19 12:09:34;;;;;;;5.65;1.70;;;;;;;;;;4842389;29;20069;-60
2022/07/19 12:12:11;;;;;;;2.90;1.67;;;;;;;;;;4841778;29;20080;-60
2022/07/19 12:14:40;;;;;;;4.78;1.80;;;;;;;;;;4841994;29;20136;-60
2022/07/19 12:17:21;;;;;;;2.92;1.60;;;;;;;;;;4841593;29;20046;-59
2022/07/19 12:20:07;;;;;;;3.55;1.65;;;;;;;;;;4842231;29;20040;-60
2022/07/19 12:22:34;;;;;;;2.63;1.50;;;;;;;;;;4842111;29;20037;-61
2022/07/19 12:25:01;;;;;;;4.15;1.50;;;;;;;;;;4841927;29;20048;-60
2022/07/19 12:27:27;;;;;;;4.53;1.67;;;;;;;;;;4842008;29;20041;-61
2022/07/19 12:29:54;;;;;;;6.32;1.67;;;;;;;;;;4841667;29;20030;-60
2022/07/19 12:32:26;;;;;;;5.88;1.48;;;;;;;;;;4841784;29;20017;-60
2022/07/19 12:34:56;;;;;;;;;;;;;;;;;;4842334;29;20033;-61
2022/07/19 12:37:25;;;;;;;4.07;1.40;;;;;;;;;;4841612;29;19920;-59
2022/07/19 12:40:17;;;;;;;3.70;1.83;;;;;;;;;;4841847;29;20060;-61
2022/07/19 12:42:43;;;;;;;;;;;;;;;;;;4840257;29;20077;-61
2022/07/19 12:45:11;;;;;;;5.13;1.58;;;;;;;;;;4841104;29;20377;-61
2022/07/19 12:47:37;;;;;;;5.53;1.75;;;;;;;;;;4841001;29;20038;-60
2022/07/19 12:50:04;;;;;;;5.28;1.70;;;;;;;;;;4841176;29;20034;-62
2022/07/19 12:52:30;;;;;;;4.53;1.70;;;;;;;;;;4840883;29;20175;-59
2022/07/19 12:54:56;;;;;;;4.28;1.65;;;;;;;;;;4841197;29;20038;-59
2022/07/19 12:57:22;;;;;;;2.42;1.38;;;;;;;;;;4841264;29;20037;-60
2022/07/19 12:59:48;;;;;;;6.65;1.70;;;;;;;;;;4841193;29;20043;-59
2022/07/19 13:02:16;;;;;;;5.15;1.70;;;;;;;;;;4841389;29;20038;-60
2022/07/19 13:04:43;;;;;;;5.35;1.50;;;;;;;;;;4840861;29;20062;-59
2022/07/19 13:07:09;;;;;;;4.20;1.88;;;;;;;;;;4841123;29;20058;-60
2022/07/19 13:09:36;;;;;;;4.78;1.70;;;;;;;;;;4840924;29;20038;-62
2022/07/19 13:12:03;;;;;;;5.95;1.55;;;;;;;;;;4840966;29;20034;-61
2022/07/19 13:14:30;;;;;;;3.33;1.60;;;;;;;;;;4840683;29;20124;-61
2022/07/19 13:16:56;;;;;;;5.93;1.80;;;;;;;;;;4840760;29;20430;-60
2022/07/19 13:19:22;;;;;;;6.20;1.83;;;;;;;;;;4841162;29;20085;-60
2022/07/19 13:21:48;;;;;;;3.08;1.60;;;;;;;;;;4841052;29;20030;-61
2022/07/19 13:24:14;;;;;;;3.92;1.42;;;;;;;;;;4840301;29;20468;-60
2022/07/19 13:26:40;;;;;;;3.78;1.33;;;;;;;;;;4840319;29;20026;-60
2022/07/19 13:29:06;;;;;;;4.45;1.35;;;;;;;;;;4840453;29;20030;-60
2022/07/19 13:31:32;;;;;;;8.45;1.60;;;;;;;;;;4840623;29;20102;-60
2022/07/19 13:33:58;;;;;;;5.18;1.50;;;;;;;;;;4840630;29;20033;-60
2022/07/19 13:36:25;;;;;;;10.35;1.90;;;;;;;;;;4840538;29;20129;-61
2022/07/19 13:38:51;;;;;;;6.07;1.60;;;;;;;;;;4841157;29;20029;-61
2022/07/19 13:41:17;;;;;;;2.30;1.35;;;;;;;;;;4840346;29;20034;-61
2022/07/19 13:43:46;;;;;;;6.70;1.90;;;;;;;;;;4840800;29;20109;-60
2022/07/19 13:46:13;;;;;;;4.55;1.90;;;;;;;;;;4840326;29;20056;-61
2022/07/19 13:48:40;;;;;;;3.95;1.33;;;;;;;;;;4840143;29;20065;-65
2022/07/19 13:51:07;;;;;;;6.50;1.80;;;;;;;;;;4840480;29;20038;-60
2022/07/19 13:53:33;;;;;;;5.22;1.45;;;;;;;;;;4840463;29;20058;-60
2022/07/19 13:55:59;;;;;;;4.70;1.50;;;;;;;;;;4840378;29;20124;-59
2022/07/19 13:58:25;;;;;;;8.27;1.52;;;;;;;;;;4840412;29;20018;-60
2022/07/19 14:00:51;;;;;;;5.07;1.60;;;;;;;;;;4840360;29;20034;-61
2022/07/19 14:03:17;;;;;;;5.38;1.60;;;;;;;;;;4840607;29;20037;-59
2022/07/19 14:05:44;;;;;;;7.35;1.60;;;;;;;;;;4840486;29;20026;-59
2022/07/19 14:08:11;;;;;;;2.83;1.42;;;;;;;;;;4839989;29;20113;-60
2022/07/19 14:10:37;;;;;;;2.97;1.30;;;;;;;;;;4840223;29;20037;-62
2022/07/19 14:13:03;;;;;;;2.95;1.23;;;;;;;;;;4840398;29;20034;-62
2022/07/19 14:15:30;;;;;;;3.08;1.30;;;;;;;;;;4840069;29;20045;-60
2022/07/19 14:17:56;;;;;;;4.47;1.45;;;;;;;;;;4840226;29;20040;-59
2022/07/19 14:20:22;;;;;;;4.47;1.50;;;;;;;;;;4840370;29;20038;-61
2022/07/19 14:22:49;;;;;;;6.95;1.40;;;;;;;;;;4840310;29;20110;-61
2022/07/19 14:25:15;;;;;;;3.78;1.30;;;;;;;;;;4840280;29;20033;-62
2022/07/19 14:27:41;;;;;;;3.50;1.17;;;;;;;;;;4840055;29;20491;-60
2022/07/19 14:30:07;;;;;;;6.45;1.05;;;;;;;;;;4840217;29;20042;-58
2022/07/19 14:32:33;;;;;;;1.80;1.10;;;;;;;;;;4840210;29;20041;-58
2022/07/19 14:34:59;;;;;;;3.17;1.40;;;;;;;;;;4839882;29;20503;-58
2022/07/19 14:37:25;;;;;;;1.73;1.10;;;;;;;;;;4840282;29;20076;-60
2022/07/19 14:39:51;;;;;;;2.67;1.35;;;;;;;;;;4841391;29;20034;-59
2022/07/19 14:42:17;;;;;;;3.65;1.30;;;;;;;;;;4843537;29;20082;-58
2022/07/19 14:44:43;;;;;;;2.35;1.10;;;;;;;;;;4843497;29;20100;-58
2022/07/19 14:47:09;;;;;;;3.15;1.30;;;;;;;;;;4843502;29;20034;-58
2022/07/19 14:49:36;;;;;;;3.35;1.20;;;;;;;;;;4843481;29;20030;-60
2022/07/19 14:52:02;;;;;;;2.55;1.30;;;;;;;;;;4871470;29;20047;-57
2022/07/19 14:54:28;;;;;;;4.45;1.10;;;;;;;;;;4877724;29;20035;-58
2022/07/19 14:56:55;;;;;;;2.22;1.20;;;;;;;;;;4868930;29;20128;-57
2022/07/19 14:59:21;;;;;;;3.80;1.88;;;;;;;;;;4861752;29;20416;-58
2022/07/19 15:01:48;;;;;;;3.97;1.15;;;;;;;;;;4861811;29;20044;-59
2022/07/19 15:04:14;;;;;;;8.77;1.30;;;;;;;;;;4861608;29;20101;-60
2022/07/19 15:06:40;;;;;;;3.13;1.40;;;;;;;;;;4861215;29;20033;-59
2022/07/19 15:09:06;;;;;;;2.92;1.30;;;;;;;;;;4861539;29;20120;-60
2022/07/19 15:11:32;;;;;;;3.72;1.23;;;;;;;;;;4861412;29;20029;-59
2022/07/19 15:14:02;;;;;;;5.60;1.20;;;;;;;;;;4861292;29;20038;-58
2022/07/19 15:16:28;;;;;;;3.53;1.50;;;;;;;;;;4861044;29;20450;-60
2022/07/19 15:18:54;;;;;;;6.90;1.20;;;;;;;;;;4861569;29;20386;-58
2022/07/19 15:21:21;;;;;;;3.40;1.80;;;;;;;;;;4861342;29;20065;-59
2022/07/19 15:23:47;;;;;;;3.40;1.38;;;;;;;;;;4861179;29;20034;-60
2022/07/19 15:26:13;;;;;;;4.05;1.55;;;;;;;;;;4861288;29;20037;-60
2022/07/19 15:28:39;;;;;;;4.28;1.60;;;;;;;;;;4861174;29;20104;-61
2022/07/19 15:31:05;;;;;;;2.20;1.52;;;;;;;;;;4861309;29;20037;-60
2022/07/19 15:33:32;;;;;;;3.95;1.40;;;;;;;;;;4861249;29;20030;-59
2022/07/19 15:35:58;;;;;;;2.10;1.23;;;;;;;;;;4860946;29;20084;-62
2022/07/19 15:38:24;;;;;;;2.00;1.10;;;;;;;;;;4860927;29;20034;-62
2022/07/19 15:40:50;;;;;;;4.75;1.10;;;;;;;;;;4861184;29;20037;-61
2022/07/19 15:43:17;;;;;;;3.05;1.52;;;;;;;;;;4861129;29;20526;-59
2022/07/19 15:45:43;;;;;;;3.40;1.20;;;;;;;;;;4860898;29;20394;-58
2022/07/19 15:48:09;;;;;;;4.78;1.42;;;;;;;;;;4860642;29;20033;-59
2022/07/19 15:50:37;;;;;;;4.75;1.23;;;;;;;;;;4860664;29;20045;-61
2022/07/19 15:53:04;;;;;;;3.42;1.45;;;;;;;;;;4860983;29;20029;-58
2022/07/19 15:55:30;;;;;;;4.88;1.27;;;;;;;;;;4859842;29;20037;-58
2022/07/19 15:57:56;;;;;;;2.45;1.58;;;;;;;;;;4860564;29;20038;-58
2022/07/19 16:00:22;;;;;;;5.40;1.80;;;;;;;;;;4860403;29;20445;-57
2022/07/19 16:02:48;;;;;;;7.40;1.70;;;;;;;;;;4860430;29;20030;-61
2022/07/19 16:05:14;;;;;;;4.28;1.50;;;;;;;;;;4859898;29;20940;-60
2022/07/19 16:07:40;;;;;;;3.55;1.70;;;;;;;;;;4859885;29;20152;-60
2022/07/19 16:10:08;;;;;;;4.60;2.05;;;;;;;;;;4860308;29;20615;-61
2022/07/19 16:12:34;;;;;;;3.05;1.40;;;;;;;;;;4860112;29;20042;-60
2022/07/19 16:15:00;;;;;;;3.55;1.23;;;;;;;;;;4859809;29;20478;-59
2022/07/19 16:17:26;;;;;;;4.28;1.45;;;;;;;;;;4860124;29;20483;-61
2022/07/19 16:19:52;;;;;;;3.13;1.70;;;;;;;;;;4860253;29;20096;-61
2022/07/19 16:22:19;;;;;;;3.22;1.60;;;;;;;;;;4860485;29;20382;-60
2022/07/19 16:24:45;;;;;;;4.18;1.48;;;;;;;;;;4860412;29;20037;-60
2022/07/19 16:27:11;;;;;;;5.60;1.60;;;;;;;;;;4860131;29;20078;-60
2022/07/19 16:29:37;;;;;;;5.13;1.48;;;;;;;;;;4860239;29;20025;-59
2022/07/19 16:32:04;;;;;;;3.50;1.67;;;;;;;;;;4860047;29;20025;-58
2022/07/19 16:34:30;;;;;;;4.05;1.50;;;;;;;;;;4859940;29;20394;-58
2022/07/19 16:36:56;;;;;;;5.55;1.42;;;;;;;;;;4859939;29;20054;-60
2022/07/19 16:39:22;;;;;;;3.45;1.40;;;;;;;;;;4859550;29;20029;-62
2022/07/19 16:41:48;;;;;;;3.25;1.40;;;;;;;;;;4859869;29;20040;-59
2022/07/19 16:44:14;;;;;;;2.17;1.38;;;;;;;;;;4859838;29;20029;-59
2022/07/19 16:46:40;;;;;;;3.53;1.30;;;;;;;;;;4859518;29;20037;-63
2022/07/19 16:49:06;;;;;;;4.88;1.48;;;;;;;;;;4859559;29;20053;-60
2022/07/19 16:51:32;;;;;;;6.13;1.20;;;;;;;;;;4859709;29;20032;-62
2022/07/19 16:53:58;;;;;;;3.05;1.40;;;;;;;;;;4860169;29;20037;-61
2022/07/19 16:56:24;;;;;;;2.03;1.08;;;;;;;;;;4859612;29;20072;-59
2022/07/19 16:58:52;;;;;;;3.55;1.40;;;;;;;;;;4859675;29;20061;-61
2022/07/19 17:01:18;;;;;;;3.38;1.40;;;;;;;;;;4859199;29;20029;-58
2022/07/19 17:03:44;;;;;;;3.72;1.50;;;;;;;;;;4859030;29;20029;-62
2022/07/19 17:06:11;;;;;;;3.58;1.50;;;;;;;;;;4859181;29;20498;-58
2022/07/19 17:08:39;;;;;;;2.45;1.20;;;;;;;;;;4859170;29;20536;-63
2022/07/19 17:11:05;;;;;;;2.42;1.30;;;;;;;;;;4859207;29;20041;-60
2022/07/19 17:13:32;;;;;;;2.42;1.23;;;;;;;;;;4859381;29;20026;-62
2022/07/19 17:15:58;;;;;;;3.90;1.30;;;;;;;;;;4859175;29;20120;-63
2022/07/19 17:18:24;;;;;;;3.00;1.13;;;;;;;;;;4859613;29;20451;-61
2022/07/19 17:20:50;;;;;;;3.92;1.25;;;;;;;;;;4871992;29;20106;-61
2022/07/19 17:23:16;;;;;;;3.20;1.48;;;;;;;;;;4877659;29;20052;-59
2022/07/19 17:25:42;;;;;;;3.90;1.42;;;;;;;;;;4877866;29;20055;-59
2022/07/19 17:28:09;;;;;;;3.53;1.08;;;;;;;;;;4877908;29;20089;-61
2022/07/19 17:30:35;;;;;;;2.78;1.30;;;;;;;;;;4877940;29;20025;-59
2022/07/19 17:33:01;;;;;;;3.83;1.00;;;;;;;;;;4869817;29;20036;-61
2022/07/19 17:35:27;;;;;;;2.63;1.40;;;;;;;;;;4877654;29;20041;-59
2022/07/19 17:37:53;;;;;;;4.03;1.58;;;;;;;;;;4877754;29;20044;-59
2022/07/19 17:40:19;;;;;;;4.65;1.35;;;;;;;;;;4877684;29;20047;-61
2022/07/19 17:42:45;;;;;;;5.80;1.75;;;;;;;;;;4877608;29;20067;-61
2022/07/19 17:45:11;;;;;;;3.00;1.40;;;;;;;;;;4877790;29;20025;-59
2022/07/19 17:47:37;;;;;;;4.53;1.50;;;;;;;;;;4877420;29;20037;-61
2022/07/19 17:50:03;;;;;;;3.53;1.50;;;;;;;;;;4877455;29;20056;-61
2022/07/19 17:55:55;;;;;;;3.47;1.40;;;;;;;;;;4877096;29;20117;-61
2022/07/19 17:58:58;;;;;;;13.25;2.03;;;;;;;;;;4876154;29;20057;-62
2022/07/19 18:03:59;;;;;;;21.40;2.00;;;;;;;;;;5092285;23;20052;-60
2022/07/19 18:06:25;;;;;;;21.15;2.60;;;;;;;;;;4876821;29;20033;-61
2022/07/19 18:08:52;;;;;;;26.27;2.20;;;;;;;;;;4876973;29;20499;-61
2022/07/19 18:11:18;;;;;;;12.82;2.70;;;;;;;;;;4876721;29;20040;-61
2022/07/19 18:13:44;;;;;;;22.67;2.80;;;;;;;;;;4878204;29;20029;-60
2022/07/19 18:16:10;;;;;;;15.38;2.47;;;;;;;;;;4880680;29;20041;-60
2022/07/19 18:18:37;;;;;;;10.25;2.17;;;;;;;;;;4880928;29;20034;-60
2022/07/19 18:21:03;;;;;;;9.05;4.40;;;;;;;;;;4881115;29;20029;-60
2022/07/19 18:23:29;;;;;;;22.02;3.60;;;;;;;;;;4881543;29;20027;-61
2022/07/19 18:25:55;;;;;;;17.83;4.03;;;;;;;;;;4881151;29;20138;-61
2022/07/19 18:28:21;;;;;;;21.02;4.30;;;;;;;;;;4880753;29;20452;-61
2022/07/19 18:30:48;;;;;;;23.33;4.63;;;;;;;;;;4864135;29;20048;-60
2022/07/19 18:33:14;;;;;;;14.27;4.93;;;;;;;;;;4880696;29;20077;-60
2022/07/19 18:35:40;;;;;;;19.70;5.80;;;;;;;;;;4880847;29;20432;-60
2022/07/19 18:38:07;;;;;;;27.60;6.38;;;;;;;;;;4880768;29;20037;-60
2022/07/19 18:40:33;;;;;;;12.90;6.65;;;;;;;;;;4880779;29;20033;-60
2022/07/19 18:42:59;;;;;;;15.32;7.32;;;;;;;;;;4880876;29;20029;-59
2022/07/19 18:45:25;;;;;;;12.45;7.30;;;;;;;;;;4880750;29;20032;-60
2022/07/19 18:47:51;;;;;;;14.48;6.95;;;;;;;;;;4863631;29;20040;-60
2022/07/19 18:50:17;;;;;;;14.15;5.78;;;;;;;;;;4880724;29;20077;-62
2022/07/19 18:52:43;;;;;;;12.82;6.25;;;;;;;;;;4880746;29;20025;-61
2022/07/19 18:55:10;;;;;;;12.75;6.90;;;;;;;;;;4880926;29;20100;-60
2022/07/19 18:57:36;;;;;;;22.23;6.53;;;;;;;;;;4880886;29;20510;-62
2022/07/19 19:00:03;;;;;;;12.55;7.00;;;;;;;;;;4880447;29;20486;-60
2022/07/19 19:02:29;;;;;;;14.63;6.85;;;;;;;;;;4880388;29;20048;-60
2022/07/19 19:04:55;;;;;;;18.67;6.63;;;;;;;;;;4880161;29;20053;-60
2022/07/19 19:07:21;;;;;;;13.88;7.07;;;;;;;;;;4880044;29;20033;-60
2022/07/19 19:09:48;;;;;;;13.90;8.23;;;;;;;;;;4880260;29;20040;-62
2022/07/19 19:12:14;;;;;;;19.02;9.30;;;;;;;;;;4880115;29;20025;-59
2022/07/19 19:14:40;;;;;;;11.07;7.40;;;;;;;;;;4880115;29;20031;-59
2022/07/19 19:17:07;;;;;;;16.77;7.40;;;;;;;;;;4879771;29;20177;-60
2022/07/19 19:19:34;;;;;;;20.95;8.48;;;;;;;;;;4876534;29;20025;-60
2022/07/19 19:22:00;;;;;;;14.98;7.60;;;;;;;;;;4879806;29;20385;-60
2022/07/19 19:24:26;;;;;;;17.23;8.55;;;;;;;;;;4880113;29;20481;-61
2022/07/19 19:26:52;;;;;;;13.98;6.10;;;;;;;;;;4865678;29;20032;-58
2022/07/19 19:29:18;;;;;;;12.90;6.97;;;;;;;;;;4849095;29;20025;-58
2022/07/19 19:31:44;;;;;;;12.20;6.82;;;;;;;;;;4873614;29;20084;-58
2022/07/19 19:34:10;;;;;;;15.48;7.78;;;;;;;;;;4877331;29;20087;-58
2022/07/19 19:36:36;;;;;;;13.93;6.57;;;;;;;;;;4878408;29;20055;-58
2022/07/19 19:39:03;;;;;;;13.38;6.85;;;;;;;;;;4878293;29;20028;-58
2022/07/19 19:41:29;;;;;;;13.88;6.00;;;;;;;;;;4878363;29;20037;-57
2022/07/19 19:43:56;;;;;;;15.55;6.95;;;;;;;;;;4861542;29;20029;-57
2022/07/19 19:46:22;;;;;;;12.55;6.38;;;;;;;;;;4878141;29;20633;-58
2022/07/19 19:48:48;;;;;;;14.90;6.97;;;;;;;;;;4878238;29;20449;-57
